createdAt,value
2022-12-15T00:01:40.308Z,95905.25
2022-12-15T00:04:00.541Z,95897.56
2022-12-15T00:06:20.778Z,95893.22
2022-12-15T00:08:41.317Z,95892.47
2022-12-15T00:11:03.005Z,95894.13
2022-12-15T00:13:29.869Z,95906.06
2022-12-15T00:15:50.621Z,95909.53
2022-12-15T00:18:10.650Z,95901.84
2022-12-15T00:20:31.046Z,95902.69
2022-12-15T00:22:51.415Z,95903.47
2022-12-15T00:25:11.786Z,95908.56
2022-12-15T00:27:33.449Z,95907.75
2022-12-15T00:29:53.671Z,95908.59
2022-12-15T00:32:13.627Z,95907.78
2022-12-15T00:34:33.818Z,95912.03
2022-12-15T00:36:53.963Z,95922.22
2022-12-15T00:39:01.900Z,95929.13
2022-12-15T00:41:06.631Z,95924.00
2022-12-15T00:43:12.157Z,95929.97
2022-12-15T00:45:14.983Z,95927.47
2022-12-15T00:47:16.630Z,95930.91
2022-12-15T00:49:36.643Z,95937.81
2022-12-15T00:51:56.742Z,95925.84
2022-12-15T00:54:18.247Z,95927.56
2022-12-15T00:56:38.746Z,95931.84
2022-12-15T00:59:00.349Z,95936.91
2022-12-15T01:01:25.250Z,95940.38
2022-12-15T01:03:45.734Z,95945.50
2022-12-15T01:06:06.154Z,95952.31
2022-12-15T01:08:26.487Z,95953.16
2022-12-15T01:10:46.673Z,95951.41
2022-12-15T01:13:06.755Z,95943.69
2022-12-15T01:15:28.491Z,95947.94
2022-12-15T01:17:48.774Z,95946.25
2022-12-15T01:20:09.238Z,95959.91
2022-12-15T01:22:11.851Z,95957.28
2022-12-15T01:24:14.496Z,95944.41
2022-12-15T01:26:17.155Z,95955.53
2022-12-15T01:28:20.512Z,95947.03
2022-12-15T01:30:26.581Z,95954.69
2022-12-15T01:32:29.549Z,95953.81
2022-12-15T01:34:32.172Z,95956.38
2022-12-15T01:36:34.844Z,95958.94
2022-12-15T01:38:37.497Z,95963.25
2022-12-15T01:40:45.353Z,95964.97
2022-12-15T01:42:48.056Z,95962.41
2022-12-15T01:44:52.384Z,95969.22
2022-12-15T01:46:57.377Z,95964.97
2022-12-15T01:49:11.330Z,95960.66
2022-12-15T01:51:19.053Z,95957.22
2022-12-15T01:53:21.698Z,95966.63
2022-12-15T01:55:28.844Z,95974.31
2022-12-15T01:57:33.656Z,95970.91
2022-12-15T01:59:39.940Z,95980.38
2022-12-15T02:01:42.821Z,95979.47
2022-12-15T02:03:48.568Z,95982.06
2022-12-15T02:05:51.837Z,95976.94
2022-12-15T02:07:54.538Z,95980.38
2022-12-15T02:10:01.164Z,95976.09
2022-12-15T02:12:15.125Z,95976.91
2022-12-15T02:14:26.719Z,95972.69
2022-12-15T02:16:39.938Z,95971.00
2022-12-15T02:18:53.208Z,95974.47
2022-12-15T02:21:01.541Z,95983.00
2022-12-15T02:23:33.618Z,95990.66
2022-12-15T02:25:54.566Z,95985.56
2022-12-15T02:28:03.034Z,95977.88
2022-12-15T02:30:26.279Z,95978.66
2022-12-15T02:32:33.557Z,95988.06
2022-12-15T02:34:43.501Z,95989.78
2022-12-15T02:36:49.976Z,95990.63
2022-12-15T02:38:52.763Z,95987.22
2022-12-15T02:40:59.125Z,95988.94
2022-12-15T02:43:05.877Z,95981.25
2022-12-15T02:45:13.703Z,95990.63
2022-12-15T02:47:28.186Z,95988.91
2022-12-15T02:49:37.254Z,95987.22
2022-12-15T02:51:51.065Z,95989.78
2022-12-15T02:54:15.470Z,95995.75
2022-12-15T02:56:23.390Z,95994.03
2022-12-15T02:58:33.037Z,95994.91
2022-12-15T03:00:40.590Z,95999.09
2022-12-15T03:02:47.358Z,96006.81
2022-12-15T03:04:50.300Z,96000.88
2022-12-15T03:07:00.797Z,96000.88
2022-12-15T03:09:04.132Z,95998.31
2022-12-15T03:11:06.898Z,95999.97
2022-12-15T03:13:09.473Z,96005.09
2022-12-15T03:15:13.105Z,96009.34
2022-12-15T03:17:17.233Z,96011.91
2022-12-15T03:19:19.867Z,96011.91
2022-12-15T03:21:22.477Z,96012.78
2022-12-15T03:23:25.064Z,96013.69
2022-12-15T03:25:27.671Z,96016.25
2022-12-15T03:27:30.544Z,96018.81
2022-12-15T03:29:33.182Z,96016.28
2022-12-15T03:31:35.822Z,96021.41
2022-12-15T03:33:39.807Z,96030.81
2022-12-15T03:35:42.472Z,96029.97
2022-12-15T03:37:45.060Z,96029.13
2022-12-15T03:39:47.792Z,96031.69
2022-12-15T03:41:50.442Z,96038.50
2022-12-15T03:43:53.047Z,96035.13
2022-12-15T03:45:55.678Z,96035.97
2022-12-15T03:47:58.711Z,96035.16
2022-12-15T03:50:02.667Z,96039.34
2022-12-15T03:52:05.402Z,96034.28
2022-12-15T03:54:08.912Z,96037.75
2022-12-15T03:56:11.549Z,96033.41
2022-12-15T03:58:14.125Z,96050.56
2022-12-15T04:00:18.555Z,96053.13
2022-12-15T04:02:21.370Z,96054.84
2022-12-15T04:04:24.192Z,96044.53
2022-12-15T04:06:28.495Z,96045.41
2022-12-15T04:08:31.090Z,96044.50
2022-12-15T04:10:36.252Z,96058.13
2022-12-15T04:12:39.674Z,96057.28
2022-12-15T04:14:42.698Z,96053.91
2022-12-15T04:16:45.326Z,96057.34
2022-12-15T04:19:08.370Z,96058.22
2022-12-15T04:21:10.037Z,96053.13
2022-12-15T04:23:13.849Z,96062.53
2022-12-15T04:25:36.019Z,96059.97
2022-12-15T04:28:01.415Z,96056.56
2022-12-15T04:30:22.359Z,96045.41
2022-12-15T04:32:43.025Z,96047.97
2022-12-15T04:35:03.343Z,96045.41
2022-12-15T04:37:26.068Z,96049.75
2022-12-15T04:39:48.109Z,96054.88
2022-12-15T04:42:08.598Z,96042.94
2022-12-15T04:44:30.322Z,96052.31
2022-12-15T04:46:50.387Z,96061.72
2022-12-15T04:49:10.455Z,96064.25
2022-12-15T04:51:30.910Z,96058.31
2022-12-15T04:53:51.054Z,96059.16
2022-12-15T04:56:18.014Z,96055.78
2022-12-15T04:58:38.798Z,96059.19
2022-12-15T05:00:58.759Z,96056.59
2022-12-15T05:03:23.059Z,96053.22
2022-12-15T05:05:43.065Z,96055.75
2022-12-15T05:08:03.263Z,96064.28
2022-12-15T05:10:24.723Z,96066.03
2022-12-15T05:12:46.273Z,96071.19
2022-12-15T05:15:06.649Z,96088.19
2022-12-15T05:17:26.850Z,96073.69
2022-12-15T05:19:46.881Z,96077.09
2022-12-15T05:22:07.179Z,96074.56
2022-12-15T05:24:27.402Z,96077.97
2022-12-15T05:26:52.393Z,96081.34
2022-12-15T05:29:14.717Z,96085.66
2022-12-15T05:31:34.969Z,96087.31
2022-12-15T05:33:37.742Z,96092.44
2022-12-15T05:35:40.347Z,96087.28
2022-12-15T05:37:42.957Z,96083.00
2022-12-15T05:39:45.550Z,96088.13
2022-12-15T05:41:48.505Z,96084.72
2022-12-15T05:43:51.112Z,96081.31
2022-12-15T05:45:55.131Z,96071.94
2022-12-15T05:47:57.861Z,96072.75
2022-12-15T05:50:00.452Z,96066.75
2022-12-15T05:52:03.095Z,96072.78
2022-12-15T05:54:06.121Z,96081.31
2022-12-15T05:56:10.590Z,96095.84
2022-12-15T05:58:13.186Z,96084.75
2022-12-15T06:00:16.520Z,96080.41
2022-12-15T06:02:20.541Z,96091.53
2022-12-15T06:04:23.320Z,96093.25
2022-12-15T06:06:26.296Z,96101.81
2022-12-15T06:08:31.111Z,96106.91
2022-12-15T06:10:33.761Z,96114.59
2022-12-15T06:12:37.484Z,96118.84
2022-12-15T06:14:40.066Z,96102.66
2022-12-15T06:16:50.241Z,96117.97
2022-12-15T06:18:57.184Z,96113.75
2022-12-15T06:21:00.766Z,96106.91
2022-12-15T06:23:03.360Z,96103.50
2022-12-15T06:25:07.252Z,96095.81
2022-12-15T06:27:10.091Z,96097.53
2022-12-15T06:29:13.946Z,96093.16
2022-12-15T06:31:18.636Z,96104.28
2022-12-15T06:33:22.699Z,96087.22
2022-12-15T06:35:26.660Z,96082.09
2022-12-15T06:37:29.276Z,96075.25
2022-12-15T06:39:31.901Z,96089.00
2022-12-15T06:41:34.865Z,96082.97
2022-12-15T06:43:37.452Z,96087.22
2022-12-15T06:45:40.055Z,96090.69
2022-12-15T06:47:42.675Z,96094.09
2022-12-15T06:49:45.265Z,96088.16
2022-12-15T06:51:50.047Z,96085.63
2022-12-15T06:53:54.119Z,96088.19
2022-12-15T06:58:04.022Z,96093.31
2022-12-15T07:00:07.865Z,96089.06
2022-12-15T07:02:18.539Z,96086.44
2022-12-15T07:04:23.768Z,96092.47
2022-12-15T07:06:26.961Z,96080.53
2022-12-15T07:08:35.349Z,96077.06
2022-12-15T07:10:43.079Z,96100.97
2022-12-15T07:12:45.686Z,96103.56
2022-12-15T07:14:53.395Z,96105.22
2022-12-15T07:16:56.355Z,96100.13
2022-12-15T07:18:59.003Z,96101.81
2022-12-15T07:21:04.398Z,96104.41
2022-12-15T07:23:09.598Z,96101.00
2022-12-15T07:25:13.558Z,96107.88
2022-12-15T07:27:16.281Z,96107.03
2022-12-15T07:29:23.302Z,96104.53
2022-12-15T07:31:27.160Z,96113.88
2022-12-15T07:33:30.712Z,96111.25
2022-12-15T07:35:33.853Z,96121.53
2022-12-15T07:37:36.969Z,96117.28
2022-12-15T07:39:39.568Z,96106.13
2022-12-15T07:41:43.497Z,96122.34
2022-12-15T07:43:47.107Z,96117.19
2022-12-15T07:45:53.319Z,96116.34
2022-12-15T07:47:55.976Z,96129.13
2022-12-15T07:49:58.685Z,96135.91
2022-12-15T07:52:01.297Z,96134.25
2022-12-15T07:54:03.951Z,96130.81
2022-12-15T07:56:08.954Z,96123.16
2022-12-15T07:58:13.694Z,96132.56
2022-12-15T08:00:18.122Z,96136.75
2022-12-15T08:02:20.881Z,96141.91
2022-12-15T08:04:23.603Z,96152.94
2022-12-15T08:06:26.249Z,96158.06
2022-12-15T08:08:29.106Z,96162.31
2022-12-15T08:10:32.534Z,96165.72
2022-12-15T08:12:35.103Z,96158.81
2022-12-15T08:14:39.009Z,96166.53
2022-12-15T08:16:41.890Z,96157.13
2022-12-15T08:18:44.525Z,96169.06
2022-12-15T08:20:50.263Z,96169.06
2022-12-15T08:22:53.074Z,96169.06
2022-12-15T08:24:55.744Z,96175.91
2022-12-15T08:26:58.500Z,96169.91
2022-12-15T08:29:31.924Z,96170.75
2022-12-15T08:31:28.855Z,96165.63
2022-12-15T08:33:32.000Z,96167.28
2022-12-15T08:35:55.630Z,96164.72
2022-12-15T08:38:02.265Z,96170.69
2022-12-15T08:40:08.822Z,96171.47
2022-12-15T08:42:11.459Z,96174.03
2022-12-15T08:44:14.134Z,96181.69
2022-12-15T08:46:17.915Z,96184.28
2022-12-15T08:48:23.076Z,96183.44
2022-12-15T08:50:25.740Z,96182.59
2022-12-15T08:52:28.564Z,96172.31
2022-12-15T08:54:32.551Z,96174.03
2022-12-15T08:56:37.105Z,96171.38
2022-12-15T08:58:40.356Z,96177.38
2022-12-15T09:00:42.981Z,96166.28
2022-12-15T09:02:45.672Z,96155.13
2022-12-15T09:04:50.941Z,96149.97
2022-12-15T09:06:55.055Z,96144.00
2022-12-15T09:09:00.140Z,96149.97
2022-12-15T09:11:03.184Z,96148.22
2022-12-15T09:13:05.867Z,96137.09
2022-12-15T09:15:09.471Z,96132.78
2022-12-15T09:17:12.678Z,96145.59
2022-12-15T09:19:15.365Z,96160.13
2022-12-15T09:21:22.343Z,96163.47
2022-12-15T09:23:24.979Z,96163.41
2022-12-15T09:25:27.571Z,96166.00
2022-12-15T09:27:30.518Z,96172.00
2022-12-15T09:29:33.735Z,96180.53
2022-12-15T09:31:38.735Z,96176.19
2022-12-15T09:33:41.669Z,96181.31
2022-12-15T09:35:50.939Z,96184.72
2022-12-15T09:37:54.929Z,96178.69
2022-12-15T09:39:57.530Z,96183.91
2022-12-15T09:42:01.510Z,96183.84
2022-12-15T09:44:08.124Z,96182.97
2022-12-15T09:46:21.092Z,96178.69
2022-12-15T09:48:25.958Z,96161.63
2022-12-15T09:50:35.043Z,96173.63
2022-12-15T09:52:47.165Z,96165.00
2022-12-15T09:54:51.244Z,96153.91
2022-12-15T09:56:58.145Z,96156.38
2022-12-15T09:59:11.226Z,96154.63
2022-12-15T10:01:23.258Z,96158.94
2022-12-15T10:03:45.929Z,96168.31
2022-12-15T10:06:16.634Z,96160.63
2022-12-15T10:08:40.743Z,96161.47
2022-12-15T10:10:53.586Z,96158.88
2022-12-15T10:13:03.124Z,96146.88
2022-12-15T10:15:17.049Z,96145.16
2022-12-15T10:17:25.546Z,96144.28
2022-12-15T10:19:35.056Z,96146.00
2022-12-15T10:21:37.929Z,96143.44
2022-12-15T10:23:40.770Z,96156.22
2022-12-15T10:25:51.535Z,96157.91
2022-12-15T10:28:18.521Z,96153.63
2022-12-15T10:30:21.621Z,96153.56
2022-12-15T10:32:31.386Z,96158.69
2022-12-15T10:34:38.089Z,96147.56
2022-12-15T10:36:50.511Z,96152.66
2022-12-15T10:38:53.772Z,96146.69
2022-12-15T10:41:02.129Z,96150.09
2022-12-15T10:43:15.430Z,96144.19
2022-12-15T10:45:36.322Z,96148.47
2022-12-15T10:47:38.946Z,96143.25
2022-12-15T10:49:41.537Z,96140.72
2022-12-15T10:51:46.372Z,96133.03
2022-12-15T10:53:51.167Z,96127.91
2022-12-15T10:56:02.222Z,96132.97
2022-12-15T10:58:17.141Z,96128.00
2022-12-15T11:00:29.566Z,96128.69
2022-12-15T11:02:34.744Z,96131.22
2022-12-15T11:04:37.530Z,96136.41
2022-12-15T11:06:43.479Z,96140.59
2022-12-15T11:08:47.653Z,96133.81
2022-12-15T11:11:12.883Z,96137.16
2022-12-15T11:13:18.301Z,96137.09
2022-12-15T11:15:45.490Z,96137.16
2022-12-15T11:17:57.243Z,96128.59
2022-12-15T11:20:04.341Z,96135.31
2022-12-15T11:22:13.607Z,96131.91
2022-12-15T11:24:21.562Z,96131.03
2022-12-15T11:26:35.167Z,96126.78
2022-12-15T11:28:45.691Z,96119.91
2022-12-15T11:30:55.352Z,96108.81
2022-12-15T11:33:01.214Z,96098.41
2022-12-15T11:35:04.286Z,96097.56
2022-12-15T11:37:21.326Z,96086.41
2022-12-15T11:39:42.659Z,96086.31
2022-12-15T11:41:54.626Z,96070.06
2022-12-15T11:44:11.577Z,96053.75
2022-12-15T11:46:21.658Z,96044.28
2022-12-15T11:48:33.275Z,96037.47
2022-12-15T11:50:51.048Z,96033.09
2022-12-15T11:53:18.386Z,96027.13
2022-12-15T11:55:34.388Z,96036.50
2022-12-15T11:57:54.416Z,96040.72
2022-12-15T12:00:06.195Z,96033.91
2022-12-15T12:02:27.554Z,96030.44
2022-12-15T12:04:36.843Z,96035.53
2022-12-15T12:06:49.156Z,96039.00
2022-12-15T12:09:19.031Z,96024.44
2022-12-15T12:11:28.958Z,96017.47
2022-12-15T12:13:41.164Z,96007.13
2022-12-15T12:15:51.412Z,95999.41
2022-12-15T12:17:59.723Z,95998.50
2022-12-15T12:20:11.582Z,95995.03
2022-12-15T12:22:25.362Z,95994.88
2022-12-15T12:24:34.057Z,96000.88
2022-12-15T12:26:41.693Z,95991.41
2022-12-15T12:31:22.465Z,96002.59
2022-12-15T12:33:32.985Z,96008.53
2022-12-15T12:35:43.443Z,96001.69
2022-12-15T12:37:54.166Z,96006.94
2022-12-15T12:40:04.007Z,96009.41
2022-12-15T12:42:13.415Z,96014.53
2022-12-15T12:44:27.090Z,96012.09
2022-12-15T12:46:34.562Z,96007.84
2022-12-15T12:48:42.324Z,96014.63
2022-12-15T12:50:45.082Z,96016.38
2022-12-15T12:52:55.676Z,96016.44
2022-12-15T12:55:00.911Z,96018.19
2022-12-15T12:57:23.888Z,96012.94
2022-12-15T12:59:38.414Z,96008.72
2022-12-15T13:01:42.513Z,96001.09
2022-12-15T13:03:46.163Z,96005.41
2022-12-15T13:05:54.511Z,96002.84
2022-12-15T13:08:17.123Z,95991.75
2022-12-15T13:10:21.615Z,95982.38
2022-12-15T13:12:52.535Z,95969.59
2022-12-15T13:14:56.437Z,95960.13
2022-12-15T13:17:26.135Z,95957.56
2022-12-15T13:20:02.248Z,95954.97
2022-12-15T13:22:04.821Z,95955.94
2022-12-15T13:24:19.033Z,95952.41
2022-12-15T13:26:22.321Z,95943.06
2022-12-15T13:28:40.248Z,95938.78
2022-12-15T13:31:25.169Z,95932.84
2022-12-15T13:33:30.781Z,95935.34
2022-12-15T13:35:34.532Z,95943.16
2022-12-15T13:37:49.006Z,95938.78
2022-12-15T13:39:56.048Z,95952.50
2022-12-15T13:42:38.864Z,95949.88
2022-12-15T13:44:48.600Z,95946.41
2022-12-15T13:46:54.112Z,95944.75
2022-12-15T13:49:10.518Z,95941.38
2022-12-15T13:51:25.471Z,95933.59
2022-12-15T13:53:29.987Z,95935.34
2022-12-15T13:55:37.982Z,95930.16
2022-12-15T13:57:51.140Z,95925.00
2022-12-15T13:59:58.496Z,95922.34
2022-12-15T14:02:01.879Z,95919.00
2022-12-15T14:04:08.257Z,95913.75
2022-12-15T14:06:15.348Z,95910.34
2022-12-15T14:08:19.022Z,95904.38
2022-12-15T14:10:24.543Z,95902.56
2022-12-15T14:12:27.351Z,95900.03
2022-12-15T14:14:32.991Z,95912.94
2022-12-15T14:16:36.280Z,95912.84
2022-12-15T14:18:40.809Z,95910.28
2022-12-15T14:20:44.758Z,95905.97
2022-12-15T14:22:50.483Z,95902.63
2022-12-15T14:24:59.148Z,95895.72
2022-12-15T14:27:01.733Z,95904.28
2022-12-15T14:29:06.309Z,95900.91
2022-12-15T14:31:16.034Z,95900.03
2022-12-15T14:33:19.910Z,95899.31
2022-12-15T14:35:28.807Z,95910.31
2022-12-15T14:37:33.237Z,95909.50
2022-12-15T14:39:38.751Z,95909.50
2022-12-15T14:41:48.951Z,95903.59
2022-12-15T14:44:37.254Z,95903.53
2022-12-15T14:46:23.404Z,95902.69
2022-12-15T14:48:41.027Z,95894.94
2022-12-15T14:50:47.007Z,95892.41
2022-12-15T14:52:56.977Z,95891.56
2022-12-15T14:55:01.614Z,95896.78
2022-12-15T14:57:15.419Z,95905.34
2022-12-15T14:59:20.806Z,95906.22
2022-12-15T15:01:27.575Z,95908.88
2022-12-15T15:03:11.323Z,95999.97
2022-12-15T15:03:37.161Z,95911.47
2022-12-15T15:05:41.657Z,95906.31
2022-12-15T15:07:46.961Z,95915.72
2022-12-15T15:09:51.317Z,95906.31
2022-12-15T15:11:57.013Z,95911.47
2022-12-15T15:14:04.137Z,95913.19
2022-12-15T15:16:17.092Z,95916.72
2022-12-15T15:18:25.823Z,95921.75
2022-12-15T15:20:31.647Z,95925.19
2022-12-15T15:22:40.807Z,95919.16
2022-12-15T15:24:51.622Z,95926.84
2022-12-15T15:26:55.856Z,95938.03
2022-12-15T15:28:58.851Z,95934.66
2022-12-15T15:31:06.748Z,95919.25
2022-12-15T15:33:10.468Z,95925.22
2022-12-15T15:35:13.516Z,95930.31
2022-12-15T15:37:21.098Z,95927.75
2022-12-15T15:39:23.759Z,95925.22
2022-12-15T15:41:30.119Z,95919.22
2022-12-15T15:43:34.004Z,95927.78
2022-12-15T15:45:36.628Z,95936.38
2022-12-15T15:47:39.885Z,95938.94
2022-12-15T15:49:42.649Z,95935.53
2022-12-15T15:51:47.685Z,95942.41
2022-12-15T15:53:50.685Z,95932.09
2022-12-15T15:55:55.381Z,95925.25
2022-12-15T15:58:01.090Z,95926.16
2022-12-15T16:00:16.909Z,95933.75
2022-12-15T16:02:19.779Z,95918.41
2022-12-15T16:04:22.659Z,95919.31
2022-12-15T16:06:25.276Z,95909.03
2022-12-15T16:08:32.654Z,95915.03
2022-12-15T16:10:35.700Z,95917.63
2022-12-15T16:12:42.840Z,95899.69
2022-12-15T16:14:45.831Z,95899.66
2022-12-15T16:16:53.929Z,95903.06
2022-12-15T16:18:56.527Z,95909.97
2022-12-15T16:20:59.309Z,95911.59
2022-12-15T16:23:04.687Z,95918.41
2022-12-15T16:25:12.978Z,95918.47
2022-12-15T16:27:16.604Z,95919.31
2022-12-15T16:29:21.752Z,95923.53
2022-12-15T16:31:35.622Z,95917.59
2022-12-15T16:33:43.075Z,95922.69
2022-12-15T16:35:48.151Z,95917.63
2022-12-15T16:37:50.985Z,95919.38
2022-12-15T16:39:54.014Z,95919.25
2022-12-15T16:41:57.411Z,95922.69
2022-12-15T16:44:00.029Z,95919.31
2022-12-15T16:46:02.910Z,95922.69
2022-12-15T16:48:05.557Z,95915.03
2022-12-15T16:50:12.871Z,95916.72
2022-12-15T16:52:20.821Z,95911.59
2022-12-15T16:54:26.540Z,95910.75
2022-12-15T16:56:29.129Z,95913.31
2022-12-15T16:58:33.180Z,95903.00
2022-12-15T17:00:36.547Z,95903.03
2022-12-15T17:02:41.944Z,95903.84
2022-12-15T17:04:44.673Z,95902.94
2022-12-15T17:06:48.763Z,95897.78
2022-12-15T17:08:53.420Z,95895.31
2022-12-15T17:10:57.157Z,95886.75
2022-12-15T17:13:05.731Z,95878.22
2022-12-15T17:15:18.269Z,95875.63
2022-12-15T17:17:21.227Z,95873.88
2022-12-15T17:19:23.787Z,95874.72
2022-12-15T17:21:29.729Z,95868.84
2022-12-15T17:23:35.451Z,95878.97
2022-12-15T17:28:04.909Z,95863.56
2022-12-15T17:30:11.635Z,95862.72
2022-12-15T17:32:14.209Z,95860.25
2022-12-15T17:34:27.022Z,95851.66
2022-12-15T17:36:29.891Z,95865.38
2022-12-15T17:38:33.884Z,95860.25
2022-12-15T17:40:36.606Z,95856.78
2022-12-15T17:42:39.185Z,95852.53
2022-12-15T17:44:42.104Z,95859.31
2022-12-15T17:46:44.706Z,95852.50
2022-12-15T17:48:47.365Z,95859.31
2022-12-15T17:50:52.458Z,95854.25
2022-12-15T17:52:55.048Z,95863.69
2022-12-15T17:54:58.952Z,95861.91
2022-12-15T17:57:01.518Z,95873.09
2022-12-15T17:59:05.587Z,95876.50
2022-12-15T18:01:13.047Z,95867.19
2022-12-15T18:03:15.845Z,95866.25
2022-12-15T18:05:19.756Z,95868.81
2022-12-15T18:07:24.558Z,95855.91
2022-12-15T18:09:27.950Z,95852.50
2022-12-15T18:11:31.892Z,95862.78
2022-12-15T18:13:35.654Z,95853.41
2022-12-15T18:15:38.366Z,95846.50
2022-12-15T18:17:40.955Z,95844.00
2022-12-15T18:19:43.558Z,95851.63
2022-12-15T18:21:46.124Z,95845.69
2022-12-15T18:23:48.760Z,95846.56
2022-12-15T18:25:52.216Z,95844.84
2022-12-15T18:27:58.389Z,95843.91
2022-12-15T18:30:01.013Z,95849.97
2022-12-15T18:32:06.630Z,95851.69
2022-12-15T18:34:12.788Z,95857.72
2022-12-15T18:36:16.223Z,95844.84
2022-12-15T18:38:21.253Z,95835.47
2022-12-15T18:40:28.002Z,95831.22
2022-12-15T18:42:30.598Z,95826.91
2022-12-15T18:44:34.545Z,95832.00
2022-12-15T18:46:37.131Z,95826.94
2022-12-15T18:48:40.180Z,95826.88
2022-12-15T18:50:42.893Z,95826.88
2022-12-15T18:52:49.564Z,95830.41
2022-12-15T18:54:54.221Z,95831.22
2022-12-15T18:56:56.891Z,95831.28
2022-12-15T18:58:59.459Z,95828.78
2022-12-15T19:01:04.944Z,95826.13
2022-12-15T19:03:07.723Z,95821.91
2022-12-15T19:05:27.125Z,95818.44
2022-12-15T19:07:29.830Z,95809.06
2022-12-15T19:09:32.446Z,95810.84
2022-12-15T19:11:35.025Z,95814.28
2022-12-15T19:13:39.380Z,95818.50
2022-12-15T19:15:42.313Z,95808.22
2022-12-15T19:18:04.148Z,95804.81
2022-12-15T19:20:32.763Z,95797.97
2022-12-15T19:22:35.448Z,95797.13
2022-12-15T19:24:56.501Z,95797.16
2022-12-15T19:26:59.036Z,95796.31
2022-12-15T19:29:01.683Z,95792.84
2022-12-15T19:31:04.271Z,95788.78
2022-12-15T19:33:08.254Z,95789.47
2022-12-15T19:35:11.765Z,95792.03
2022-12-15T19:37:23.423Z,95800.63
2022-12-15T19:39:26.074Z,95803.41
2022-12-15T19:41:28.622Z,95799.72
2022-12-15T19:43:31.675Z,95796.44
2022-12-15T19:45:34.822Z,95798.19
2022-12-15T19:47:37.438Z,95802.50
2022-12-15T19:49:41.635Z,95799.94
2022-12-15T19:51:44.441Z,95810.03
2022-12-15T19:53:48.736Z,95799.88
2022-12-15T19:55:52.893Z,95804.13
2022-12-15T19:57:55.465Z,95801.56
2022-12-15T19:59:58.077Z,95805.81
2022-12-15T20:02:00.849Z,95805.81
2022-12-15T20:04:03.680Z,95804.94
2022-12-15T20:06:14.624Z,95804.09
2022-12-15T20:08:22.454Z,95803.22
2022-12-15T20:10:32.259Z,95806.63
2022-12-15T20:12:35.636Z,95802.47
2022-12-15T20:14:38.469Z,95800.63
2022-12-15T20:16:41.359Z,95800.66
2022-12-15T20:18:45.115Z,95794.69
2022-12-15T20:20:49.975Z,95800.66
2022-12-15T20:22:56.128Z,95799.72
2022-12-15T20:24:58.771Z,95798.09
2022-12-15T20:27:01.320Z,95799.81
2022-12-15T20:29:04.565Z,95804.09
2022-12-15T20:31:07.340Z,95803.19
2022-12-15T20:33:11.714Z,95815.22
2022-12-15T20:35:16.224Z,95810.00
2022-12-15T20:37:21.626Z,95801.56
2022-12-15T20:39:29.269Z,95802.31
2022-12-15T20:41:32.075Z,95804.88
2022-12-15T20:43:35.576Z,95810.94
2022-12-15T20:45:38.837Z,95813.47
2022-12-15T20:47:43.334Z,95808.41
2022-12-15T20:49:45.968Z,95805.03
2022-12-15T20:51:50.683Z,95816.09
2022-12-15T20:53:55.792Z,95808.41
2022-12-15T20:56:00.037Z,95798.91
2022-12-15T20:58:02.745Z,95794.69
2022-12-15T21:00:06.719Z,95794.63
2022-12-15T21:02:18.860Z,95791.22
2022-12-15T21:04:25.981Z,95794.63
2022-12-15T21:06:29.532Z,95803.28
2022-12-15T21:08:33.102Z,95797.38
2022-12-15T21:10:35.630Z,95793.00
2022-12-15T21:12:39.509Z,95794.69
2022-12-15T21:14:42.160Z,95789.63
2022-12-15T21:16:44.839Z,95791.38
2022-12-15T21:21:18.918Z,95794.81
2022-12-15T21:23:24.669Z,95793.81
2022-12-15T21:25:27.625Z,95791.47
2022-12-15T21:27:30.248Z,95792.28
2022-12-15T21:29:35.243Z,95790.56
2022-12-15T21:31:37.790Z,95788.00
2022-12-15T21:33:40.806Z,95785.44
2022-12-15T21:35:46.056Z,95790.47
2022-12-15T21:37:52.561Z,95794.81
2022-12-15T21:39:59.369Z,95791.38
2022-12-15T21:42:05.073Z,95789.72
2022-12-15T21:44:13.726Z,95795.00
2022-12-15T21:46:27.587Z,95800.00
2022-12-15T21:48:48.060Z,95796.63
2022-12-15T21:50:50.857Z,95797.50
2022-12-15T21:52:54.633Z,95799.94
2022-12-15T21:55:02.559Z,95794.81
2022-12-15T21:57:05.157Z,95786.38
2022-12-15T21:59:13.543Z,95789.75
2022-12-15T22:01:21.740Z,95799.19
2022-12-15T22:03:24.529Z,95805.06
2022-12-15T22:05:30.213Z,95807.63
2022-12-15T22:07:32.784Z,95811.94
2022-12-15T22:09:35.342Z,95812.78
2022-12-15T22:11:38.584Z,95817.91
2022-12-15T22:13:41.143Z,95815.38
2022-12-15T22:15:44.096Z,95821.31
2022-12-15T22:17:48.338Z,95828.22
2022-12-15T22:19:50.908Z,95818.78
2022-12-15T22:21:54.736Z,95820.53
2022-12-15T22:23:57.568Z,95818.84
2022-12-15T22:26:00.231Z,95818.84
2022-12-15T22:28:02.766Z,95814.59
2022-12-15T22:30:19.328Z,95822.28
2022-12-15T22:32:21.935Z,95812.88
2022-12-15T22:34:28.145Z,95817.16
2022-12-15T22:36:33.544Z,95823.19
2022-12-15T22:38:36.301Z,95821.50
2022-12-15T22:40:42.138Z,95831.78
2022-12-15T22:42:50.262Z,95833.50
2022-12-15T22:44:54.856Z,95826.72
2022-12-15T22:47:00.695Z,95835.28
2022-12-15T22:49:03.425Z,95837.88
2022-12-15T22:51:07.869Z,95838.69
2022-12-15T22:53:13.778Z,95839.63
2022-12-15T22:55:17.648Z,95834.53
2022-12-15T22:57:23.242Z,95846.41
2022-12-15T22:59:28.495Z,95835.31
2022-12-15T23:01:31.219Z,95835.44
2022-12-15T23:03:34.677Z,95837.19
2022-12-15T23:05:40.533Z,95840.53
2022-12-15T23:07:45.246Z,95846.53
2022-12-15T23:09:47.803Z,95837.16
2022-12-15T23:11:49.441Z,95837.16
2022-12-15T23:13:51.861Z,95838.84
2022-12-15T23:16:12.395Z,95844.88
2022-12-15T23:18:15.437Z,95849.16
2022-12-15T23:20:18.140Z,95844.88
2022-12-15T23:22:20.906Z,95850.91
2022-12-15T23:24:24.817Z,95851.75
2022-12-15T23:26:27.811Z,95844.13
2022-12-15T23:28:30.725Z,95842.34
2022-12-15T23:30:33.340Z,95850.03
2022-12-15T23:32:38.634Z,95848.34
2022-12-15T23:34:43.683Z,95854.34
2022-12-15T23:36:46.668Z,95859.53
2022-12-15T23:38:49.281Z,95851.81
2022-12-15T23:40:55.409Z,95848.44
2022-12-15T23:42:58.034Z,95854.44
2022-12-15T23:45:00.857Z,95851.81
2022-12-15T23:47:03.553Z,95849.25
2022-12-15T23:49:06.788Z,95862.13
2022-12-15T23:51:11.247Z,95856.16
2022-12-15T23:53:13.886Z,95862.19
2022-12-15T23:55:16.642Z,95868.13
2022-12-15T23:57:20.564Z,95865.66
2022-12-15T23:59:23.125Z,95869.81
